Terminal Aerodrome Forecast
Issued by NWS

Current Version | Previous Version | Text Only | Print | Product List | Glossary On
Versions: 1 2 3 4 5 6 7 8 9 10 11 12 13 14 15 16 17 18 19 20 21 22 23
000
FTUS41 KBUF 201500 AAA
TAFIAG
TAF AMD
KIAG 201504Z 2015/2112 09006KT P6SM SKC
     FM202100 VRB03KT P6SM FEW200
     FM210200 18006KT P6SM BKN140=

USA.gov is the U.S. government's official web portal to all federal, state and local government web resources and services.